Trance — V7QT3 — position and weather

sailwx.info

Track history (hours):
 
Tides and Currents Weather Stations Pressure Air Temp Water Temp Dewpoint Dewpoint Depression Visibility Wind Speed Wind Dir Waves Ship Positions

Trance

Last reported at 2018-Jun-12 16:35 UTC. Time now 2018-Jul-16 04:52 UTC.
Position N 09°11' W 079°52'.
Warning: this ship's position is 33 days out of date.

Length 180 m; draft 6.7 m.

Type: Tanker. MMSI: 538001433.

Date/timePositionNaut miles runAvg speedWind from/ knotsBaromVisibWave heightAir tempDewpointWater temp
2018-Jun-12 16:35N 09°11' W 079°52'1 6.5
2018-Jun-12 16:30N 09°11' W 079°53'2 4.6
2018-Jun-12 15:59N 09°12' W 079°55'3 6.3
2018-Jun-12 15:26N 09°15' W 079°55'1 1.9
2018-Jun-12 15:00N 09°16' W 079°55'0 0.5
2018-Jun-12 14:30N 09°17' W 079°55'0 0.6
2018-Jun-12 14:00N 09°17' W 079°55'0 0.4
2018-Jun-12 13:29N 09°17' W 079°55'2 4.4
2018-Jun-12 13:00N 09°19' W 079°55'3 5.9
2018-Jun-12 12:30N 09°22' W 079°55'2 4.5
2018-Jun-12 12:00N 09°24' W 079°55'2 4.4
2018-Jun-12 11:29N 09°26' W 079°56'2 3.3
2018-Jun-12 10:53N 09°28' W 079°57'0 0.1
2018-Jun-12 10:20N 09°28' W 079°57'0 0.0
2018-Jun-12 09:05N 09°28' W 079°57'0 0.0
2018-Jun-12 08:44N 09°28' W 079°57'0 0.0
2018-Jun-12 08:02N 09°28' W 079°57'0 0.1
2018-Jun-12 07:59N 09°28' W 079°57'0 0.0
2018-Jun-12 07:29N 09°28' W 079°57'0 0.0
2018-Jun-12 06:59N 09°28' W 079°57'0 0.0
2018-Jun-12 06:29N 09°28' W 079°57'0 0.0
2018-Jun-12 05:59N 09°28' W 079°57'0 0.0
2018-Jun-12 05:29N 09°28' W 079°57'0 0.0
2018-Jun-12 04:59N 09°28' W 079°57'0 0.1
2018-Jun-12 04:23N 09°28' W 079°57'0 0.0
2018-Jun-12 03:59N 09°28' W 079°57'0 0.1
2018-Jun-12 03:29N 09°28' W 079°57'0 0.0
2018-Jun-12 02:59N 09°28' W 079°57'0 0.1
2018-Jun-12 02:29N 09°28' W 079°57'0 0.1
2018-Jun-12 01:53N 09°28' W 079°57'0 0.0
2018-Jun-12 01:29N 09°28' W 079°57'0 0.1
2018-Jun-12 00:59N 09°28' W 079°57'0 0.0
2018-Jun-12 00:29N 09°28' W 079°57'0 0.0
2018-Jun-11 23:59N 09°28' W 079°57'0 0.1
2018-Jun-11 23:29N 09°28' W 079°57'0 0.0
2018-Jun-11 22:59N 09°28' W 079°57'0 0.1
2018-Jun-11 22:29N 09°28' W 079°57'0 0.1
2018-Jun-11 21:59N 09°28' W 079°57'0 0.0
2018-Jun-11 21:05N 09°28' W 079°57'0 0.1
2018-Jun-11 20:59N 09°28' W 079°57'0 0.1
2018-Jun-11 20:29N 09°28' W 079°57'0 0.3
2018-Jun-11 20:00N 09°28' W 079°57'3 5.1
2018-Jun-11 19:29N 09°30' W 079°56'4 8.2
2018-Jun-11 18:59N 09°34' W 079°53'  
2018-Jun-06 08:22N 29°39' W 093°20'5 9.7
2018-Jun-06 07:53N 29°44' W 093°20'3 9.4
2018-Jun-06 07:30N 29°48' W 093°21'5 9.4
2018-Jun-06 07:00N 29°52' W 093°21'4 8.4
2018-Jun-06 06:30N 29°57' W 093°20'4 7.2
2018-Jun-06 06:01N 30°00' W 093°20'3 6.7
2018-Jun-06 05:30N 30°04' W 093°20'3 6.3
2018-Jun-06 05:01N 30°07' W 093°20'3 5.5
2018-Jun-06 04:30N 30°09' W 093°20'2 4.5
2018-Jun-06 04:01N 30°11' W 093°18'3 5.0
2018-Jun-06 03:30N 30°12' W 093°16'1 2.5
2018-Jun-06 03:01N 30°14' W 093°16'0 0.0
2018-Jun-05 02:23N 30°14' W 093°15'0 0.0
2018-Jun-05 01:41N 30°14' W 093°15'0 0.0
2018-Jun-05 01:23N 30°14' W 093°15'0 0.0
2018-Jun-05 00:59N 30°14' W 093°15'0 0.0
2018-Jun-05 00:29N 30°14' W 093°15'0 0.0
2018-Jun-04 23:59N 30°14' W 093°15'0 0.0
2018-Jun-04 23:29N 30°14' W 093°15'0 0.0
2018-Jun-04 22:59N 30°14' W 093°15'0 0.0
2018-Jun-04 22:23N 30°14' W 093°15'0 0.0
2018-Jun-04 21:59N 30°14' W 093°15'0 0.0
2018-Jun-04 21:29N 30°14' W 093°15'0 0.0
2018-Jun-04 20:53N 30°14' W 093°15'0 0.0
2018-Jun-04 20:23N 30°14' W 093°15'0 0.0
2018-Jun-04 19:59N 30°14' W 093°15'0 0.0
2018-Jun-04 19:29N 30°14' W 093°15'0 0.0
2018-Jun-04 18:59N 30°14' W 093°15'0 0.0
2018-Jun-04 18:29N 30°14' W 093°15'0 0.0
2018-Jun-04 17:59N 30°14' W 093°15'0 0.0
2018-Jun-04 17:29N 30°14' W 093°15'0 0.0
2018-Jun-04 16:59N 30°14' W 093°15'0 0.0
2018-Jun-04 16:29N 30°14' W 093°15'0 0.0
2018-Jun-04 15:59N 30°14' W 093°15'0 0.0
2018-Jun-04 15:11N 30°14' W 093°15'0 0.0
2018-Jun-04 14:59N 30°14' W 093°15'0 0.0
2018-Jun-04 14:29N 30°14' W 093°15'0 0.0
2018-Jun-04 13:53N 30°14' W 093°15'0 0.0
2018-Jun-04 13:29N 30°14' W 093°15'0 0.0
2018-Jun-04 12:53N 30°14' W 093°15'0 0.0
2018-Jun-04 12:17N 30°14' W 093°15'0 0.0
2018-Jun-04 11:53N 30°14' W 093°15'0 0.0
2018-Jun-04 11:23N 30°14' W 093°15'0 0.0
2018-Jun-04 10:05N 30°14' W 093°15'0 0.0
2018-Jun-04 09:47N 30°14' W 093°15'0 0.0
2018-Jun-04 08:23N 30°14' W 093°15'0 0.0
2018-Jun-04 07:59N 30°14' W 093°15'0 0.0
2018-Jun-04 07:23N 30°14' W 093°15'0 0.7
2018-Jun-04 07:00N 30°14' W 093°15'2 4.3
2018-Jun-04 06:30N 30°12' W 093°17'2 2.6
2018-Jun-04 05:54N 30°11' W 093°18'0 0.0
2018-Jun-04 05:30N 30°11' W 093°18'0 0.0
2018-Jun-04 05:00N 30°11' W 093°18'0 0.0
2018-Jun-04 04:30N 30°11' W 093°18'0 0.0
2018-Jun-04 04:00N 30°11' W 093°18'0 0.0
2018-Jun-04 03:30N 30°11' W 093°18'0 0.0
2018-Jun-04 03:00N 30°11' W 093°18'0 0.0
2018-Jun-04 02:30N 30°11' W 093°18'0 0.0
2018-Jun-04 02:00N 30°11' W 093°18'0 0.0
2018-Jun-04 01:30N 30°11' W 093°18'0 0.0
2018-Jun-04 01:00N 30°11' W 093°18'0 0.0
2018-Jun-04 00:30N 30°11' W 093°18'0 0.0
2018-Jun-04 00:00N 30°11' W 093°18'0 0.0
2018-Jun-03 23:30N 30°11' W 093°18'0 0.0
2018-Jun-03 23:00N 30°11' W 093°18'0 0.1
2018-Jun-03 22:30N 30°11' W 093°18'0 0.1
2018-Jun-03 22:00N 30°11' W 093°18'0 0.0
2018-Jun-03 21:30N 30°11' W 093°18'0 0.1
2018-Jun-03 21:00N 30°11' W 093°18'0 0.2
2018-Jun-03 20:30N 30°11' W 093°18'0 0.0
2018-Jun-03 20:00N 30°11' W 093°18'0 0.0
2018-Jun-03 19:30N 30°11' W 093°18'0 0.0
2018-Jun-03 19:00N 30°11' W 093°18'0 0.0
2018-Jun-03 18:30N 30°11' W 093°18'0 0.0
2018-Jun-03 18:00N 30°11' W 093°18'0 0.0
2018-Jun-03 17:30N 30°11' W 093°18'0 0.0
2018-Jun-03 17:00N 30°11' W 093°18'0 0.0
2018-Jun-03 16:30N 30°11' W 093°18'0 0.0
2018-Jun-03 16:00N 30°11' W 093°18'0 0.0
2018-Jun-03 15:30N 30°11' W 093°18'0 0.0
2018-Jun-03 15:00N 30°11' W 093°18'0 0.0
2018-Jun-03 14:27N 30°11' W 093°18'0 0.0
2018-Jun-03 14:00N 30°11' W 093°18'0 0.0
2018-Jun-03 13:30N 30°11' W 093°18'0 0.0
2018-Jun-03 13:00N 30°11' W 093°18'0 0.4
2018-Jun-03 12:30N 30°11' W 093°19'2 3.7
2018-Jun-03 12:00N 30°09' W 093°20'3 5.9
2018-Jun-03 11:30N 30°06' W 093°20'4 7.1
2018-Jun-03 11:00N 30°03' W 093°20'3 6.2
2018-Jun-03 10:30N 29°60' W 093°20'4 7.8
2018-Jun-03 10:00N 29°56' W 093°20'5 9.3
2018-Jun-03 09:30N 29°51' W 093°21'4 8.4
2018-Jun-03 09:00N 29°47' W 093°21'5 9.4
2018-Jun-03 08:30N 29°42' W 093°20'611.3
2018-Jun-03 08:00N 29°37' W 093°19'4 1.5
2018-Jun-03 05:01N 29°35' W 093°14'0 0.0
2018-Jun-03 01:46N 29°35' W 093°14'0 0.0
2018-Jun-03 01:28N 29°35' W 093°14'0 0.0
2018-Jun-03 00:58N 29°35' W 093°14'0 0.0
2018-Jun-03 00:25N 29°35' W 093°14'0 0.0
2018-Jun-02 23:49N 29°35' W 093°14'0 0.1
2018-Jun-02 20:46N 29°34' W 093°15'  
Track history (hours):
 
Tides and Currents Weather Stations Pressure Air Temp Water Temp Dewpoint Dewpoint Depression Visibility Wind Speed Wind Dir Waves Ship Positions

Trance

Last reported at 2018-Jun-12 16:35 UTC. Time now 2018-Jul-16 04:52 UTC.
Position N 09°11' W 079°52'.
Warning: this ship's position is 33 days out of date.

Length 180 m; draft 6.7 m.

Type: Tanker. MMSI: 538001433.

Date/timePositionNaut miles runAvg speedWind from/ knotsBaromVisibWave heightAir tempDewpointWater temp
2018-Jun-12 16:35N 09°11' W 079°52'1 6.5
2018-Jun-12 16:30N 09°11' W 079°53'2 4.6
2018-Jun-12 15:59N 09°12' W 079°55'3 6.3
2018-Jun-12 15:26N 09°15' W 079°55'1 1.9
2018-Jun-12 15:00N 09°16' W 079°55'0 0.5
2018-Jun-12 14:30N 09°17' W 079°55'0 0.6
2018-Jun-12 14:00N 09°17' W 079°55'0 0.4
2018-Jun-12 13:29N 09°17' W 079°55'2 4.4
2018-Jun-12 13:00N 09°19' W 079°55'3 5.9
2018-Jun-12 12:30N 09°22' W 079°55'2 4.5
2018-Jun-12 12:00N 09°24' W 079°55'2 4.4
2018-Jun-12 11:29N 09°26' W 079°56'2 3.3
2018-Jun-12 10:53N 09°28' W 079°57'0 0.1
2018-Jun-12 10:20N 09°28' W 079°57'0 0.0
2018-Jun-12 09:05N 09°28' W 079°57'0 0.0
2018-Jun-12 08:44N 09°28' W 079°57'0 0.0
2018-Jun-12 08:02N 09°28' W 079°57'0 0.1
2018-Jun-12 07:59N 09°28' W 079°57'0 0.0
2018-Jun-12 07:29N 09°28' W 079°57'0 0.0
2018-Jun-12 06:59N 09°28' W 079°57'0 0.0
2018-Jun-12 06:29N 09°28' W 079°57'0 0.0
2018-Jun-12 05:59N 09°28' W 079°57'0 0.0
2018-Jun-12 05:29N 09°28' W 079°57'0 0.0
2018-Jun-12 04:59N 09°28' W 079°57'0 0.1
2018-Jun-12 04:23N 09°28' W 079°57'0 0.0
2018-Jun-12 03:59N 09°28' W 079°57'0 0.1
2018-Jun-12 03:29N 09°28' W 079°57'0 0.0
2018-Jun-12 02:59N 09°28' W 079°57'0 0.1
2018-Jun-12 02:29N 09°28' W 079°57'0 0.1
2018-Jun-12 01:53N 09°28' W 079°57'0 0.0
2018-Jun-12 01:29N 09°28' W 079°57'0 0.1
2018-Jun-12 00:59N 09°28' W 079°57'0 0.0
2018-Jun-12 00:29N 09°28' W 079°57'0 0.0
2018-Jun-11 23:59N 09°28' W 079°57'0 0.1
2018-Jun-11 23:29N 09°28' W 079°57'0 0.0
2018-Jun-11 22:59N 09°28' W 079°57'0 0.1
2018-Jun-11 22:29N 09°28' W 079°57'0 0.1
2018-Jun-11 21:59N 09°28' W 079°57'0 0.0
2018-Jun-11 21:05N 09°28' W 079°57'0 0.1
2018-Jun-11 20:59N 09°28' W 079°57'0 0.1
2018-Jun-11 20:29N 09°28' W 079°57'0 0.3
2018-Jun-11 20:00N 09°28' W 079°57'3 5.1
2018-Jun-11 19:29N 09°30' W 079°56'4 8.2
2018-Jun-11 18:59N 09°34' W 079°53'  
2018-Jun-06 08:22N 29°39' W 093°20'5 9.7
2018-Jun-06 07:53N 29°44' W 093°20'3 9.4
2018-Jun-06 07:30N 29°48' W 093°21'5 9.4
2018-Jun-06 07:00N 29°52' W 093°21'4 8.4
2018-Jun-06 06:30N 29°57' W 093°20'4 7.2
2018-Jun-06 06:01N 30°00' W 093°20'3 6.7
2018-Jun-06 05:30N 30°04' W 093°20'3 6.3
2018-Jun-06 05:01N 30°07' W 093°20'3 5.5
2018-Jun-06 04:30N 30°09' W 093°20'2 4.5
2018-Jun-06 04:01N 30°11' W 093°18'3 5.0
2018-Jun-06 03:30N 30°12' W 093°16'1 2.5
2018-Jun-06 03:01N 30°14' W 093°16'0 0.0
2018-Jun-05 02:23N 30°14' W 093°15'0 0.0
2018-Jun-05 01:41N 30°14' W 093°15'0 0.0
2018-Jun-05 01:23N 30°14' W 093°15'0 0.0
2018-Jun-05 00:59N 30°14' W 093°15'0 0.0
2018-Jun-05 00:29N 30°14' W 093°15'0 0.0
2018-Jun-04 23:59N 30°14' W 093°15'0 0.0
2018-Jun-04 23:29N 30°14' W 093°15'0 0.0
2018-Jun-04 22:59N 30°14' W 093°15'0 0.0
2018-Jun-04 22:23N 30°14' W 093°15'0 0.0
2018-Jun-04 21:59N 30°14' W 093°15'0 0.0
2018-Jun-04 21:29N 30°14' W 093°15'0 0.0
2018-Jun-04 20:53N 30°14' W 093°15'0 0.0
2018-Jun-04 20:23N 30°14' W 093°15'0 0.0
2018-Jun-04 19:59N 30°14' W 093°15'0 0.0
2018-Jun-04 19:29N 30°14' W 093°15'0 0.0
2018-Jun-04 18:59N 30°14' W 093°15'0 0.0
2018-Jun-04 18:29N 30°14' W 093°15'0 0.0
2018-Jun-04 17:59N 30°14' W 093°15'0 0.0
2018-Jun-04 17:29N 30°14' W 093°15'0 0.0
2018-Jun-04 16:59N 30°14' W 093°15'0 0.0
2018-Jun-04 16:29N 30°14' W 093°15'0 0.0
2018-Jun-04 15:59N 30°14' W 093°15'0 0.0
2018-Jun-04 15:11N 30°14' W 093°15'0 0.0
2018-Jun-04 14:59N 30°14' W 093°15'0 0.0
2018-Jun-04 14:29N 30°14' W 093°15'0 0.0
2018-Jun-04 13:53N 30°14' W 093°15'0 0.0
2018-Jun-04 13:29N 30°14' W 093°15'0 0.0
2018-Jun-04 12:53N 30°14' W 093°15'0 0.0
2018-Jun-04 12:17N 30°14' W 093°15'0 0.0
2018-Jun-04 11:53N 30°14' W 093°15'0 0.0
2018-Jun-04 11:23N 30°14' W 093°15'0 0.0
2018-Jun-04 10:05N 30°14' W 093°15'0 0.0
2018-Jun-04 09:47N 30°14' W 093°15'0 0.0
2018-Jun-04 08:23N 30°14' W 093°15'0 0.0
2018-Jun-04 07:59N 30°14' W 093°15'0 0.0
2018-Jun-04 07:23N 30°14' W 093°15'0 0.7
2018-Jun-04 07:00N 30°14' W 093°15'2 4.3
2018-Jun-04 06:30N 30°12' W 093°17'2 2.6
2018-Jun-04 05:54N 30°11' W 093°18'0 0.0
2018-Jun-04 05:30N 30°11' W 093°18'0 0.0
2018-Jun-04 05:00N 30°11' W 093°18'0 0.0
2018-Jun-04 04:30N 30°11' W 093°18'0 0.0
2018-Jun-04 04:00N 30°11' W 093°18'0 0.0
2018-Jun-04 03:30N 30°11' W 093°18'0 0.0
2018-Jun-04 03:00N 30°11' W 093°18'0 0.0
2018-Jun-04 02:30N 30°11' W 093°18'0 0.0
2018-Jun-04 02:00N 30°11' W 093°18'0 0.0
2018-Jun-04 01:30N 30°11' W 093°18'0 0.0
2018-Jun-04 01:00N 30°11' W 093°18'0 0.0
2018-Jun-04 00:30N 30°11' W 093°18'0 0.0
2018-Jun-04 00:00N 30°11' W 093°18'0 0.0
2018-Jun-03 23:30N 30°11' W 093°18'0 0.0
2018-Jun-03 23:00N 30°11' W 093°18'0 0.1
2018-Jun-03 22:30N 30°11' W 093°18'0 0.1
2018-Jun-03 22:00N 30°11' W 093°18'0 0.0
2018-Jun-03 21:30N 30°11' W 093°18'0 0.1
2018-Jun-03 21:00N 30°11' W 093°18'0 0.2
2018-Jun-03 20:30N 30°11' W 093°18'0 0.0
2018-Jun-03 20:00N 30°11' W 093°18'0 0.0
2018-Jun-03 19:30N 30°11' W 093°18'0 0.0
2018-Jun-03 19:00N 30°11' W 093°18'0 0.0
2018-Jun-03 18:30N 30°11' W 093°18'0 0.0
2018-Jun-03 18:00N 30°11' W 093°18'0 0.0
2018-Jun-03 17:30N 30°11' W 093°18'0 0.0
2018-Jun-03 17:00N 30°11' W 093°18'0 0.0
2018-Jun-03 16:30N 30°11' W 093°18'0 0.0
2018-Jun-03 16:00N 30°11' W 093°18'0 0.0
2018-Jun-03 15:30N 30°11' W 093°18'0 0.0
2018-Jun-03 15:00N 30°11' W 093°18'0 0.0
2018-Jun-03 14:27N 30°11' W 093°18'0 0.0
2018-Jun-03 14:00N 30°11' W 093°18'0 0.0
2018-Jun-03 13:30N 30°11' W 093°18'0 0.0
2018-Jun-03 13:00N 30°11' W 093°18'0 0.4
2018-Jun-03 12:30N 30°11' W 093°19'2 3.7
2018-Jun-03 12:00N 30°09' W 093°20'3 5.9
2018-Jun-03 11:30N 30°06' W 093°20'4 7.1
2018-Jun-03 11:00N 30°03' W 093°20'3 6.2
2018-Jun-03 10:30N 29°60' W 093°20'4 7.8
2018-Jun-03 10:00N 29°56' W 093°20'5 9.3
2018-Jun-03 09:30N 29°51' W 093°21'4 8.4
2018-Jun-03 09:00N 29°47' W 093°21'5 9.4
2018-Jun-03 08:30N 29°42' W 093°20'611.3
2018-Jun-03 08:00N 29°37' W 093°19'4 1.5
2018-Jun-03 05:01N 29°35' W 093°14'0 0.0
2018-Jun-03 01:46N 29°35' W 093°14'0 0.0
2018-Jun-03 01:28N 29°35' W 093°14'0 0.0
2018-Jun-03 00:58N 29°35' W 093°14'0 0.0
2018-Jun-03 00:25N 29°35' W 093°14'0 0.0
2018-Jun-02 23:49N 29°35' W 093°14'0 0.1
2018-Jun-02 20:46N 29°34' W 093°15'  

Dump ship's entire track history